createdAt,value
2019-02-03T00:01:58.108Z,28.63
2019-02-03T00:04:28.288Z,29.13
2019-02-03T00:07:03.363Z,29.30
2019-02-03T00:09:29.822Z,23.12
2019-02-03T00:11:59.980Z,26.75
2019-02-03T00:14:29.939Z,27.60
2019-02-03T00:17:00.176Z,26.70
2019-02-03T00:19:30.216Z,27.30
2019-02-03T00:22:00.299Z,30.03
2019-02-03T00:24:30.257Z,27.33
2019-02-03T00:27:00.367Z,26.93
2019-02-03T00:29:30.816Z,27.57
2019-02-03T00:32:00.983Z,30.10
2019-02-03T00:34:32.803Z,26.57
2019-02-03T00:37:14.792Z,27.00
2019-02-03T00:39:35.656Z,26.57
2019-02-03T00:42:05.835Z,25.33
2019-02-03T00:44:35.904Z,29.72
2019-02-03T00:47:05.899Z,29.20
2019-02-03T00:49:35.833Z,27.62
2019-02-03T00:52:06.172Z,27.93
2019-02-03T00:54:36.100Z,26.47
2019-02-03T00:57:06.155Z,23.70
2019-02-03T00:59:36.160Z,26.93
2019-02-03T01:02:06.442Z,27.57
2019-02-03T01:04:36.523Z,26.37
2019-02-03T01:07:07.312Z,25.97
2019-02-03T01:09:37.345Z,25.40
2019-02-03T01:12:07.439Z,25.63
2019-02-03T01:14:37.489Z,27.77
2019-02-03T01:17:07.633Z,24.30
2019-02-03T01:19:38.005Z,26.90
2019-02-03T01:22:08.075Z,28.03
2019-02-03T01:24:38.043Z,24.20
2019-02-03T01:27:08.011Z,23.53
2019-02-03T01:29:38.078Z,27.35
2019-02-03T01:32:08.286Z,26.03
2019-02-03T01:34:38.302Z,24.87
2019-02-03T01:37:08.310Z,26.50
2019-02-03T01:39:38.314Z,27.03
2019-02-03T01:42:08.341Z,23.03
2019-02-03T01:44:38.510Z,26.50
2019-02-03T01:47:08.589Z,24.07
2019-02-03T01:49:38.581Z,26.77
2019-02-03T01:52:08.622Z,25.97
2019-02-03T01:54:38.675Z,27.27
2019-02-03T01:57:08.713Z,28.17
2019-02-03T01:59:38.704Z,28.65
2019-02-03T02:02:08.775Z,26.27
2019-02-03T02:04:38.784Z,27.45
2019-02-03T02:07:08.785Z,25.13
2019-02-03T02:09:38.822Z,29.13
2019-02-03T02:12:09.190Z,28.43
2019-02-03T02:14:39.247Z,28.93
2019-02-03T02:17:09.323Z,25.77
2019-02-03T02:19:39.373Z,24.70
2019-02-03T02:22:09.408Z,26.80
2019-02-03T02:24:39.755Z,26.82
2019-02-03T02:27:09.808Z,25.00
2019-02-03T02:29:39.824Z,25.08
2019-02-03T02:32:09.887Z,28.80
2019-02-03T02:34:40.048Z,27.13
2019-02-03T02:37:09.946Z,27.97
2019-02-03T02:39:39.895Z,25.57
2019-02-03T02:42:09.977Z,29.13
2019-02-03T02:44:39.987Z,26.42
2019-02-03T02:47:10.117Z,28.40
2019-02-03T02:49:40.022Z,28.87
2019-02-03T02:52:10.412Z,26.73
2019-02-03T02:54:40.316Z,26.07
2019-02-03T02:57:10.233Z,28.13
2019-02-03T02:59:40.205Z,25.45
2019-02-03T03:02:10.379Z,26.50
2019-02-03T03:04:40.848Z,29.13
2019-02-03T03:07:10.896Z,31.23
2019-02-03T03:09:40.971Z,25.50
2019-02-03T03:12:10.884Z,26.62
2019-02-03T03:14:40.880Z,28.17
2019-02-03T03:17:11.176Z,28.43
2019-02-03T03:19:41.090Z,27.57
2019-02-03T03:22:11.042Z,28.00
2019-02-03T03:24:41.044Z,28.52
2019-02-03T03:27:10.960Z,22.50
2019-02-03T03:29:40.977Z,24.50
2019-02-03T03:32:10.868Z,25.47
2019-02-03T03:34:40.964Z,22.55
2019-02-03T03:37:10.963Z,26.73
2019-02-03T03:39:40.955Z,28.65
2019-02-03T03:42:11.135Z,29.10
2019-02-03T03:44:41.314Z,29.23
2019-02-03T03:47:11.217Z,30.60
2019-02-03T03:49:41.132Z,28.70
2019-02-03T03:52:11.335Z,31.43
2019-02-03T03:54:41.365Z,27.50
2019-02-03T03:57:11.790Z,29.83
2019-02-03T03:59:41.753Z,29.57
2019-02-03T04:02:11.882Z,33.02
2019-02-03T04:04:41.888Z,28.83
2019-02-03T04:07:12.113Z,29.07
2019-02-03T04:09:42.476Z,34.03
2019-02-03T04:12:12.499Z,28.90
2019-02-03T04:14:42.549Z,32.80
2019-02-03T04:17:12.693Z,30.93
2019-02-03T04:19:42.596Z,33.53
2019-02-03T04:22:12.974Z,32.73
2019-02-03T04:24:42.923Z,38.02
2019-02-03T04:27:12.922Z,37.27
2019-02-03T04:29:42.814Z,32.33
2019-02-03T04:32:12.725Z,31.37
2019-02-03T04:34:42.633Z,29.10
2019-02-03T04:37:12.621Z,29.80
2019-02-03T04:39:42.564Z,31.90
2019-02-03T04:42:12.542Z,31.63
2019-02-03T04:44:42.550Z,29.63
2019-02-03T04:47:12.555Z,29.70
2019-02-03T04:49:42.719Z,29.90
2019-02-03T04:52:12.768Z,31.13
2019-02-03T04:54:42.693Z,30.90
2019-02-03T04:57:12.609Z,32.20
2019-02-03T04:59:42.522Z,31.20
2019-02-03T05:02:12.860Z,31.63
2019-02-03T05:04:42.820Z,34.83
2019-02-03T05:07:12.823Z,30.97
2019-02-03T05:09:42.771Z,32.43
2019-02-03T05:12:12.731Z,31.23
2019-02-03T05:14:42.747Z,27.97
2019-02-03T05:17:12.641Z,28.67
2019-02-03T05:19:42.600Z,29.50
2019-02-03T05:22:12.541Z,34.60
2019-02-03T05:24:42.446Z,31.40
2019-02-03T05:27:12.375Z,31.33
2019-02-03T05:29:42.351Z,25.67
2019-02-03T05:32:12.262Z,28.97
2019-02-03T05:34:42.335Z,26.10
2019-02-03T05:37:12.495Z,24.57
2019-02-03T05:39:42.576Z,25.70
2019-02-03T05:42:12.734Z,23.67
2019-02-03T05:44:42.634Z,21.10
2019-02-03T05:47:12.776Z,22.57
2019-02-03T05:49:42.708Z,19.30
2019-02-03T05:52:12.629Z,22.87
2019-02-03T05:54:42.824Z,21.90
2019-02-03T05:57:12.791Z,21.80
2019-02-03T05:59:42.834Z,20.70
2019-02-03T06:02:12.753Z,19.27
2019-02-03T06:04:42.708Z,19.03
2019-02-03T06:07:12.802Z,22.70
2019-02-03T06:09:42.692Z,20.68
2019-02-03T06:12:12.768Z,20.37
2019-02-03T06:14:42.763Z,22.40
2019-02-03T06:17:12.775Z,19.23
2019-02-03T06:19:42.715Z,20.47
2019-02-03T06:22:13.085Z,20.13
2019-02-03T06:24:43.009Z,20.92
2019-02-03T06:27:13.057Z,18.63
2019-02-03T06:29:43.023Z,19.17
2019-02-03T06:32:13.125Z,23.10
2019-02-03T06:34:43.172Z,21.30
2019-02-03T06:37:13.256Z,20.83
2019-02-03T06:39:48.820Z,17.00
2019-02-03T06:42:15.154Z,19.52
2019-02-03T06:44:45.148Z,20.50
2019-02-03T06:47:24.460Z,18.53
2019-02-03T06:49:54.322Z,19.70
2019-02-03T06:52:24.419Z,18.17
2019-02-03T06:54:54.307Z,18.03
2019-02-03T06:57:24.279Z,16.17
2019-02-03T06:59:54.423Z,16.13
2019-02-03T07:02:24.413Z,16.57
2019-02-03T07:04:54.299Z,16.20
2019-02-03T07:07:24.216Z,17.03
2019-02-03T07:10:00.390Z,15.40
2019-02-03T07:12:25.823Z,19.40
2019-02-03T07:14:55.703Z,17.13
2019-02-03T07:17:25.612Z,15.00
2019-02-03T07:19:55.494Z,14.50
2019-02-03T07:22:25.468Z,16.97
2019-02-03T07:24:55.684Z,16.70
2019-02-03T07:27:25.596Z,16.35
2019-02-03T07:29:55.583Z,15.10
2019-02-03T07:32:25.581Z,15.17
2019-02-03T07:34:55.484Z,14.67
2019-02-03T07:37:25.458Z,16.20
2019-02-03T07:39:55.370Z,12.67
2019-02-03T07:42:25.349Z,14.27
2019-02-03T07:44:55.317Z,12.53
2019-02-03T07:47:25.194Z,13.07
2019-02-03T07:49:55.086Z,15.30
2019-02-03T07:52:24.998Z,14.63
2019-02-03T07:54:54.905Z,13.60
2019-02-03T07:57:24.855Z,12.67
2019-02-03T07:59:54.850Z,13.50
2019-02-03T08:02:24.853Z,13.63
2019-02-03T08:04:54.934Z,15.37
2019-02-03T08:07:24.815Z,12.20
2019-02-03T08:09:54.764Z,15.30
2019-02-03T08:12:24.782Z,14.77
2019-02-03T08:14:54.669Z,13.53
2019-02-03T08:17:24.712Z,13.00
2019-02-03T08:19:54.578Z,11.87
2019-02-03T08:22:24.714Z,10.53
2019-02-03T08:24:54.701Z,13.30
2019-02-03T08:27:24.731Z,13.63
2019-02-03T08:29:54.673Z,12.70
2019-02-03T08:32:25.002Z,12.10
2019-02-03T08:34:54.965Z,14.40
2019-02-03T08:37:24.865Z,11.27
2019-02-03T08:39:54.860Z,11.55
2019-02-03T08:42:24.744Z,11.77
2019-02-03T08:44:54.897Z,12.00
2019-02-03T08:47:24.992Z,11.80
2019-02-03T08:49:54.880Z,11.40
2019-02-03T08:52:24.889Z,10.77
2019-02-03T08:54:58.539Z,12.30
2019-02-03T08:57:26.670Z,10.33
2019-02-03T08:59:56.688Z,10.53
2019-02-03T09:02:26.697Z,7.53
2019-02-03T09:04:56.756Z,9.80
2019-02-03T09:07:26.690Z,11.10
2019-02-03T09:09:56.613Z,10.13
2019-02-03T09:12:26.508Z,9.60
2019-02-03T09:14:56.398Z,9.30
2019-02-03T09:17:26.344Z,10.03
2019-02-03T09:19:58.098Z,9.30
2019-02-03T09:22:27.895Z,8.53
2019-02-03T09:24:58.069Z,9.90
2019-02-03T09:27:28.060Z,7.85
2019-02-03T09:29:57.964Z,8.30
2019-02-03T09:32:27.850Z,7.37
2019-02-03T09:34:57.891Z,6.67
